createdAt,value
2019-04-26T00:00:07.527Z,11.70
2019-04-26T00:02:40.864Z,11.80
2019-04-26T00:05:19.352Z,11.70
2019-04-26T00:07:51.897Z,11.50
2019-04-26T00:10:28.087Z,11.60
2019-04-26T00:13:01.598Z,11.60
2019-04-26T00:15:40.489Z,11.60
2019-04-26T00:18:14.727Z,11.70
2019-04-26T00:20:45.512Z,11.70
2019-04-26T00:23:16.583Z,11.80
2019-04-26T00:25:46.997Z,11.80
2019-04-26T00:28:18.967Z,11.70
2019-04-26T00:30:51.682Z,11.60
2019-04-26T00:33:23.480Z,11.50
2019-04-26T00:36:00.328Z,11.40
2019-04-26T00:38:31.091Z,11.50
2019-04-26T00:41:05.877Z,11.50
2019-04-26T00:43:43.143Z,11.50
2019-04-26T00:46:13.249Z,11.40
2019-04-26T00:48:44.592Z,11.40
2019-04-26T00:51:15.646Z,11.40
2019-04-26T00:53:51.959Z,11.40
2019-04-26T00:56:35.344Z,11.40
2019-04-26T00:59:07.246Z,11.40
2019-04-26T01:01:41.865Z,11.40
2019-04-26T01:04:16.057Z,11.40
2019-04-26T01:06:49.398Z,11.30
2019-04-26T01:09:19.610Z,11.40
2019-04-26T01:11:49.026Z,11.40
2019-04-26T01:14:19.978Z,11.30
2019-04-26T01:16:50.578Z,11.40
2019-04-26T01:19:26.685Z,11.40
2019-04-26T01:22:02.400Z,11.30
2019-04-26T01:24:35.932Z,11.30
2019-04-26T01:27:13.312Z,11.20
2019-04-26T01:29:46.749Z,11.10
2019-04-26T01:32:22.107Z,11.20
2019-04-26T01:34:57.212Z,11.10
2019-04-26T01:37:28.867Z,11.00
2019-04-26T01:40:06.398Z,11.00
2019-04-26T01:42:53.035Z,11.10
2019-04-26T01:45:28.241Z,10.90
2019-04-26T01:48:01.973Z,10.80
2019-04-26T01:50:34.532Z,10.80
2019-04-26T01:53:06.318Z,10.80
2019-04-26T01:55:38.509Z,10.80
2019-04-26T01:58:17.115Z,10.70
2019-04-26T02:01:03.460Z,10.70
2019-04-26T02:03:33.075Z,10.70
2019-04-26T02:06:05.026Z,10.80
2019-04-26T02:08:38.091Z,10.80
2019-04-26T02:11:11.793Z,10.80
2019-04-26T02:13:42.164Z,10.80
2019-04-26T02:16:12.591Z,10.70
2019-04-26T02:18:45.992Z,10.70
2019-04-26T02:21:31.974Z,10.70
2019-04-26T02:24:16.503Z,10.70
2019-04-26T02:26:47.753Z,10.70
2019-04-26T02:29:26.955Z,10.70
2019-04-26T02:32:03.077Z,10.80
2019-04-26T02:34:38.151Z,10.70
2019-04-26T02:37:14.291Z,10.70
2019-04-26T02:39:50.238Z,10.80
2019-04-26T02:42:23.156Z,10.80
2019-04-26T02:45:22.151Z,10.80
2019-04-26T02:48:14.181Z,10.80
2019-04-26T02:50:51.291Z,10.80
2019-04-26T02:53:47.597Z,10.80
2019-04-26T02:56:30.327Z,10.90
2019-04-26T02:59:17.973Z,10.90
2019-04-26T03:01:52.042Z,10.90
2019-04-26T03:04:26.001Z,10.80
2019-04-26T03:07:03.407Z,10.80
2019-04-26T03:09:36.913Z,10.70
2019-04-26T03:12:15.884Z,10.70
2019-04-26T03:14:51.505Z,10.80
2019-04-26T03:17:34.129Z,10.80
2019-04-26T03:20:15.446Z,10.80
2019-04-26T03:23:12.942Z,10.90
2019-04-26T03:25:55.138Z,10.80
2019-04-26T03:28:46.353Z,10.90
2019-04-26T03:31:42.917Z,10.80
2019-04-26T03:34:34.466Z,10.80
2019-04-26T03:37:35.729Z,10.80
2019-04-26T03:40:22.603Z,10.70
2019-04-26T03:43:15.546Z,10.70
2019-04-26T03:45:53.680Z,10.60
2019-04-26T03:48:28.301Z,10.50
2019-04-26T03:51:10.331Z,10.60
2019-04-26T03:53:55.332Z,10.50
2019-04-26T03:56:35.928Z,10.50
2019-04-26T03:59:36.807Z,10.50
2019-04-26T04:02:10.848Z,10.50
2019-04-26T04:04:49.137Z,10.40
2019-04-26T04:07:36.120Z,10.50
2019-04-26T04:10:01.973Z,10.50
2019-04-26T04:12:45.451Z,10.50
2019-04-26T04:15:18.151Z,10.50
2019-04-26T04:18:07.578Z,10.60
2019-04-26T04:21:11.590Z,10.60
2019-04-26T04:23:48.779Z,10.50
2019-04-26T04:26:23.876Z,10.60
2019-04-26T04:29:39.863Z,10.70
2019-04-26T04:32:29.910Z,10.70
2019-04-26T04:35:07.597Z,10.60
2019-04-26T04:38:08.816Z,10.60
2019-04-26T04:40:37.564Z,10.60
2019-04-26T04:43:15.853Z,10.60
2019-04-26T04:46:14.769Z,10.70
2019-04-26T04:49:12.109Z,10.70
2019-04-26T04:51:51.737Z,10.80
2019-04-26T04:54:41.547Z,10.70
2019-04-26T04:57:31.933Z,10.50
2019-04-26T05:00:11.069Z,10.50
2019-04-26T05:03:05.366Z,10.60
2019-04-26T05:06:11.023Z,10.70
2019-04-26T05:08:59.557Z,10.80
2019-04-26T05:11:51.854Z,10.90
2019-04-26T05:14:43.876Z,11.00
2019-04-26T05:17:46.061Z,10.80
2019-04-26T05:20:56.278Z,10.90
2019-04-26T05:23:53.145Z,10.90
2019-04-26T05:30:22.352Z,11.00
2019-04-26T05:37:06.442Z,11.30
2019-04-26T05:43:33.560Z,11.40
2019-04-26T05:46:30.478Z,11.40
2019-04-26T05:50:07.325Z,11.50
2019-04-26T05:53:25.029Z,11.50
2019-04-26T05:56:32.876Z,11.60
2019-04-26T06:03:01.319Z,11.40
2019-04-26T06:13:09.192Z,11.20
2019-04-26T06:19:21.702Z,11.30
2019-04-26T06:25:27.207Z,11.60
2019-04-26T06:39:27.611Z,11.40
2019-04-26T06:46:36.557Z,11.40
2019-04-26T06:48:37.316Z,11.30
2019-04-26T07:05:32.696Z,11.60
2019-04-26T07:08:14.560Z,11.70
2019-04-26T07:11:25.642Z,11.80
2019-04-26T07:17:31.255Z,12.00
2019-04-26T07:20:18.635Z,12.00
2019-04-26T07:23:17.893Z,12.10
2019-04-26T07:26:33.243Z,12.20
2019-04-26T07:33:10.009Z,12.40
2019-04-26T07:36:09.799Z,12.50
2019-04-26T07:39:19.474Z,12.40
2019-04-26T07:42:28.928Z,12.40
2019-04-26T07:45:41.452Z,12.60
2019-04-26T07:48:42.610Z,12.50
2019-04-26T07:51:35.508Z,12.50
2019-04-26T07:54:47.194Z,12.70
2019-04-26T07:57:59.699Z,12.80
2019-04-26T08:00:45.326Z,12.90
2019-04-26T08:03:27.974Z,13.10
2019-04-26T08:06:18.604Z,13.20
2019-04-26T08:12:06.300Z,13.50
2019-04-26T08:15:09.982Z,13.60
2019-04-26T08:17:48.672Z,13.70
2019-04-26T08:20:58.484Z,13.80
2019-04-26T08:23:56.544Z,13.70
2019-04-26T08:26:35.473Z,13.80
2019-04-26T08:29:29.892Z,13.90
2019-04-26T08:32:17.200Z,14.00
2019-04-26T08:35:08.221Z,13.90
2019-04-26T08:37:41.849Z,13.90
2019-04-26T08:40:25.511Z,14.00
2019-04-26T08:43:11.002Z,14.10
2019-04-26T08:46:11.262Z,14.30
2019-04-26T08:49:06.151Z,14.40
2019-04-26T08:51:37.739Z,14.30
2019-04-26T08:54:12.765Z,14.20
2019-04-26T08:56:53.347Z,14.40
2019-04-26T08:59:32.000Z,14.40
2019-04-26T09:02:26.187Z,14.40
2019-04-26T09:05:13.883Z,14.40
2019-04-26T09:08:08.612Z,14.60
2019-04-26T09:10:53.235Z,14.80
2019-04-26T09:13:33.065Z,14.80
2019-04-26T09:16:13.085Z,14.80
2019-04-26T09:18:54.220Z,14.70
2019-04-26T09:21:29.701Z,14.80
2019-04-26T09:24:27.303Z,14.90
2019-04-26T09:27:17.155Z,15.10
2019-04-26T09:30:08.043Z,15.20
2019-04-26T09:33:01.888Z,15.40
2019-04-26T09:35:31.894Z,15.50
2019-04-26T09:38:06.301Z,15.60
2019-04-26T09:40:46.840Z,15.60
2019-04-26T09:43:31.834Z,15.50
2019-04-26T09:46:28.140Z,15.30
2019-04-26T09:49:08.596Z,15.40
2019-04-26T09:51:50.548Z,15.50
2019-04-26T09:54:27.988Z,15.30
2019-04-26T09:57:01.188Z,15.20
2019-04-26T09:59:39.919Z,15.30
2019-04-26T10:02:22.661Z,15.50
2019-04-26T10:08:03.033Z,15.90
2019-04-26T10:10:51.762Z,15.70
2019-04-26T10:13:43.894Z,15.50
2019-04-26T10:16:27.737Z,15.40
2019-04-26T10:19:04.913Z,15.30
2019-04-26T10:21:49.517Z,15.40
2019-04-26T10:24:36.440Z,15.30
2019-04-26T10:27:08.043Z,15.40
2019-04-26T10:29:43.654Z,15.50
2019-04-26T10:32:26.330Z,15.70
2019-04-26T10:34:59.252Z,15.80
2019-04-26T10:37:39.526Z,16.00
2019-04-26T10:43:11.595Z,16.20
2019-04-26T10:45:53.646Z,16.10
2019-04-26T10:48:26.783Z,16.30
2019-04-26T10:51:07.398Z,16.20
2019-04-26T10:54:05.972Z,16.30
2019-04-26T10:56:40.982Z,16.60
2019-04-26T10:59:25.711Z,16.70
2019-04-26T11:02:00.061Z,16.80
2019-04-26T11:07:39.574Z,16.50
2019-04-26T11:10:21.253Z,16.60
2019-04-26T11:15:49.307Z,17.00
2019-04-26T11:18:27.588Z,17.30
2019-04-26T11:21:02.829Z,17.60
2019-04-26T11:23:45.495Z,17.90
2019-04-26T11:26:21.937Z,18.80
2019-04-26T11:29:19.061Z,19.00
2019-04-26T11:32:02.651Z,19.60
2019-04-26T11:34:35.304Z,19.40
2019-04-26T11:37:35.879Z,19.80
2019-04-26T11:40:37.453Z,19.90
2019-04-26T11:43:15.831Z,20.20
2019-04-26T11:46:04.129Z,20.30
2019-04-26T11:48:38.077Z,20.40
2019-04-26T11:51:28.578Z,20.80
2019-04-26T11:53:56.408Z,20.20
2019-04-26T11:56:28.812Z,20.00
2019-04-26T11:59:04.992Z,20.20
2019-04-26T12:01:46.631Z,20.40
2019-04-26T12:04:41.336Z,21.10
2019-04-26T12:07:26.395Z,20.80
2019-04-26T12:10:19.697Z,21.30
2019-04-26T12:13:04.913Z,20.70
2019-04-26T12:15:39.132Z,20.80
2019-04-26T12:18:14.911Z,20.60
2019-04-26T12:20:49.457Z,20.30
2019-04-26T12:23:24.690Z,20.50
2019-04-26T12:26:00.805Z,20.50
2019-04-26T12:28:42.034Z,20.50
2019-04-26T12:31:23.636Z,21.00
2019-04-26T12:37:20.029Z,21.70
2019-04-26T12:39:54.187Z,21.60
2019-04-26T12:42:28.100Z,21.60
2019-04-26T12:45:22.867Z,21.20
2019-04-26T12:48:01.839Z,21.10
2019-04-26T12:50:41.104Z,21.50
2019-04-26T12:53:19.717Z,21.10
2019-04-26T12:55:53.623Z,21.40
2019-04-26T12:58:45.694Z,21.70
2019-04-26T13:01:33.092Z,21.80
2019-04-26T13:04:13.000Z,21.90
2019-04-26T13:06:58.324Z,21.30
2019-04-26T13:15:50.320Z,20.70
2019-04-26T13:18:23.546Z,21.20
2019-04-26T13:21:02.869Z,21.50
2019-04-26T13:23:51.968Z,21.80
2019-04-26T13:26:26.048Z,22.00
2019-04-26T13:32:04.340Z,22.10
2019-04-26T13:37:52.941Z,22.80
2019-04-26T13:41:03.957Z,22.70
2019-04-26T13:43:37.947Z,22.70
2019-04-26T13:46:38.946Z,22.70
2019-04-26T13:49:28.353Z,21.60
2019-04-26T13:52:04.475Z,21.20
2019-04-26T13:54:37.758Z,20.80
2019-04-26T13:57:13.017Z,21.10
2019-04-26T13:59:43.749Z,21.90
2019-04-26T14:02:25.587Z,22.00
2019-04-26T14:05:02.975Z,21.60
2019-04-26T14:07:33.868Z,21.20
2019-04-26T14:10:09.080Z,20.80
2019-04-26T14:12:49.895Z,21.00
2019-04-26T14:15:25.361Z,20.90
2019-04-26T14:17:56.363Z,21.10
2019-04-26T14:20:31.180Z,21.80
2019-04-26T14:23:26.764Z,22.30
2019-04-26T14:26:16.016Z,22.40
2019-04-26T14:28:54.128Z,22.20
2019-04-26T14:31:36.621Z,22.10
2019-04-26T14:34:12.133Z,21.50
2019-04-26T14:36:44.177Z,21.10
2019-04-26T14:39:19.658Z,20.80
2019-04-26T14:41:56.987Z,20.50
2019-04-26T14:44:32.953Z,20.20
2019-04-26T14:47:13.198Z,20.00
2019-04-26T14:49:39.581Z,19.90
2019-04-26T14:52:10.399Z,19.70
2019-04-26T14:54:46.080Z,19.70
2019-04-26T14:57:28.983Z,19.60
2019-04-26T15:00:12.743Z,19.60
2019-04-26T15:02:50.279Z,19.60
2019-04-26T15:05:26.543Z,19.60
2019-04-26T15:08:31.926Z,19.50
2019-04-26T15:20:58.897Z,19.70
2019-04-26T15:25:03.469Z,19.70
2019-04-26T15:36:47.961Z,19.50
2019-04-26T15:40:08.231Z,19.40
2019-04-26T15:43:25.155Z,19.30
2019-04-26T15:52:33.646Z,19.40
2019-04-26T16:04:13.414Z,19.30
2019-04-26T16:15:56.646Z,19.30
2019-04-26T16:25:08.179Z,19.30
2019-04-26T16:31:26.800Z,19.10
2019-04-26T16:34:34.974Z,19.00
2019-04-26T16:53:03.497Z,18.70
2019-04-26T17:07:39.038Z,18.30
2019-04-26T17:16:48.378Z,18.20
2019-04-26T17:19:37.375Z,18.10
2019-04-26T17:22:23.254Z,18.00
2019-04-26T17:28:11.936Z,18.20
2019-04-26T17:33:50.890Z,18.10
2019-04-26T17:36:34.285Z,18.20
2019-04-26T17:38:57.236Z,18.30
2019-04-26T17:41:36.271Z,18.40
2019-04-26T17:44:10.657Z,18.30
2019-04-26T17:53:33.210Z,17.80
2019-04-26T17:56:15.678Z,17.60
2019-04-26T17:59:09.040Z,17.60
2019-04-26T18:01:47.968Z,17.40
2019-04-26T18:04:36.061Z,17.50
2019-04-26T18:07:37.598Z,17.40
2019-04-26T18:10:13.846Z,17.20
2019-04-26T18:12:50.772Z,17.10
2019-04-26T18:15:35.544Z,16.90
2019-04-26T18:18:09.739Z,16.80
2019-04-26T18:21:00.513Z,16.90
2019-04-26T18:23:34.489Z,16.70
2019-04-26T18:26:13.475Z,16.60
2019-04-26T18:28:51.638Z,16.60
2019-04-26T18:31:22.140Z,16.70
2019-04-26T18:33:54.883Z,16.60
2019-04-26T18:36:27.718Z,16.60
2019-04-26T18:39:03.905Z,16.50
2019-04-26T18:41:37.979Z,16.50
2019-04-26T18:44:11.481Z,16.50
2019-04-26T18:46:47.626Z,16.50
2019-04-26T18:49:24.948Z,16.40
2019-04-26T18:51:57.749Z,16.40
2019-04-26T18:54:30.365Z,16.30
2019-04-26T18:57:09.637Z,16.20
2019-04-26T18:59:51.492Z,16.20
2019-04-26T19:02:26.687Z,16.10
2019-04-26T19:05:08.485Z,16.10
2019-04-26T19:07:57.043Z,16.00
2019-04-26T19:10:34.379Z,15.90
2019-04-26T19:13:32.141Z,15.80
2019-04-26T19:16:23.065Z,15.80
2019-04-26T19:19:05.396Z,15.70
2019-04-26T19:21:56.599Z,15.70
2019-04-26T19:31:28.738Z,15.50
2019-04-26T19:33:35.119Z,15.50
2019-04-26T19:36:17.700Z,15.50
2019-04-26T19:38:54.561Z,15.50
2019-04-26T19:41:43.043Z,15.50
2019-04-26T19:47:15.358Z,15.70
2019-04-26T19:49:58.480Z,15.70
2019-04-26T19:52:58.992Z,15.60
2019-04-26T19:55:41.816Z,15.70
2019-04-26T19:58:20.081Z,15.50
2019-04-26T20:00:46.856Z,15.40
2019-04-26T20:03:37.388Z,15.40
2019-04-26T20:09:37.263Z,15.40
2019-04-26T20:16:36.446Z,15.20
2019-04-26T20:25:36.303Z,15.20
2019-04-26T20:28:17.627Z,15.20
2019-04-26T20:33:57.786Z,15.00
2019-04-26T20:39:45.757Z,14.90
2019-04-26T20:42:23.622Z,14.90
2019-04-26T20:44:56.671Z,15.00
2019-04-26T20:47:36.084Z,14.90
2019-04-26T20:50:13.918Z,14.90
2019-04-26T20:52:45.513Z,14.80
2019-04-26T20:55:15.314Z,14.80
2019-04-26T20:57:48.858Z,14.80
2019-04-26T21:00:22.922Z,14.80
2019-04-26T21:03:01.094Z,14.70
2019-04-26T21:05:24.779Z,14.70
2019-04-26T21:07:55.001Z,14.60
2019-04-26T21:10:29.069Z,14.60
2019-04-26T21:12:58.899Z,14.60
2019-04-26T21:15:29.417Z,14.60
2019-04-26T21:18:02.780Z,14.50
2019-04-26T21:20:34.515Z,14.50
2019-04-26T21:23:03.735Z,14.30
2019-04-26T21:25:42.033Z,14.20
2019-04-26T21:28:15.132Z,14.20
2019-04-26T21:31:07.473Z,14.20
2019-04-26T21:33:42.995Z,14.20
2019-04-26T21:36:25.748Z,14.10
2019-04-26T21:39:15.018Z,14.00
2019-04-26T21:41:48.892Z,13.90
2019-04-26T21:44:29.915Z,13.70
2019-04-26T21:47:27.456Z,13.80
2019-04-26T21:50:00.747Z,13.70
2019-04-26T21:52:32.034Z,13.70
2019-04-26T21:55:02.720Z,13.70
2019-04-26T21:57:41.546Z,13.60
2019-04-26T22:00:13.875Z,13.50
2019-04-26T22:02:46.914Z,13.50
2019-04-26T22:05:18.508Z,13.60
2019-04-26T22:07:53.457Z,13.60
2019-04-26T22:10:32.914Z,13.60
2019-04-26T22:13:08.584Z,13.50
2019-04-26T22:15:57.758Z,13.50
2019-04-26T22:18:40.645Z,13.40
2019-04-26T22:21:12.841Z,13.40
2019-04-26T22:24:03.974Z,13.50
2019-04-26T22:26:37.983Z,13.50
2019-04-26T22:29:11.988Z,13.40
2019-04-26T22:31:45.169Z,13.30
2019-04-26T22:34:17.301Z,13.20
2019-04-26T22:36:47.844Z,13.20
2019-04-26T22:39:20.899Z,13.10
2019-04-26T22:41:58.373Z,13.20
2019-04-26T22:44:35.540Z,13.40
2019-04-26T22:47:14.950Z,13.30
2019-04-26T22:49:49.924Z,13.20
2019-04-26T22:52:19.382Z,13.20
2019-04-26T22:54:49.813Z,13.10
2019-04-26T22:57:20.237Z,13.00
2019-04-26T22:59:50.653Z,12.90
2019-04-26T23:02:26.278Z,12.90
2019-04-26T23:04:56.086Z,12.90
2019-04-26T23:07:26.077Z,12.90
2019-04-26T23:09:55.557Z,12.80
2019-04-26T23:12:28.259Z,12.80
2019-04-26T23:15:16.878Z,12.80
2019-04-26T23:17:50.772Z,12.70
2019-04-26T23:20:25.250Z,12.80
2019-04-26T23:23:05.210Z,12.80
2019-04-26T23:25:34.285Z,12.80
2019-04-26T23:28:05.415Z,12.70
2019-04-26T23:30:40.205Z,12.70
2019-04-26T23:33:18.193Z,12.70
2019-04-26T23:36:06.317Z,12.70
2019-04-26T23:38:50.476Z,12.70
2019-04-26T23:41:25.794Z,12.70
2019-04-26T23:44:03.147Z,12.70
2019-04-26T23:46:28.732Z,12.80
2019-04-26T23:49:00.253Z,12.70
2019-04-26T23:51:29.840Z,12.80
2019-04-26T23:54:15.525Z,12.70
2019-04-26T23:56:48.142Z,12.80
2019-04-26T23:59:20.781Z,12.70
